Time;durP1;ratioP1;P1;durP2;ratioP2;P2;SDS_P1;SDS_P2;PMS_P1;PMS_P2;Temp;Humidity;BMP_temperature;BMP_pressure;BME280_temperature;BME280_humidity;BME280_pressure;Samples;Min_cycle;Max_cycle;Signal;HPM_P1;HPM_P2
2022/07/06 11:56:21;;;;;;;0.20;0.20;;;;;;;;;;4848778;23;20328;31
2022/07/06 15:23:14;;;;;;;0.10;0.10;;;;;;;;;;5576820;22;20035;-96
2022/07/06 15:39:04;;;;;;;0.10;0.10;;;;;;;;;;5011865;28;20056;-92
2022/07/06 15:41:31;;;;;;;0.10;0.10;;;;;;;;;;4995494;28;20041;-91
2022/07/06 15:43:57;;;;;;;0.20;0.20;;;;;;;;;;4994157;28;20065;-88
2022/07/06 15:46:24;;;;;;;0.20;0.20;;;;;;;;;;4994323;28;20120;-88
2022/07/06 15:48:50;;;;;;;0.10;0.10;;;;;;;;;;5013182;28;20037;-89
2022/07/06 15:51:16;;;;;;;0.10;0.10;;;;;;;;;;5016340;28;20145;-89
2022/07/06 15:53:45;;;;;;;0.10;0.10;;;;;;;;;;5016764;28;20506;-90
2022/07/06 15:56:12;;;;;;;0.10;0.10;;;;;;;;;;4997697;28;20081;-89
2022/07/06 15:58:38;;;;;;;0.17;0.17;;;;;;;;;;5008270;28;20077;-91
2022/07/06 16:01:04;;;;;;;0.10;0.10;;;;;;;;;;5031213;28;20037;-93
2022/07/06 16:03:30;;;;;;;0.10;0.10;;;;;;;;;;4998502;28;20042;-95
2022/07/06 16:05:56;;;;;;;0.10;0.10;;;;;;;;;;4993358;28;20108;-91
2022/07/06 16:08:24;;;;;;;0.20;0.20;;;;;;;;;;4999895;28;20134;-93
2022/07/06 16:10:52;;;;;;;0.10;0.10;;;;;;;;;;4999214;28;20312;-94
2022/07/06 16:35:25;;;;;;;0.10;0.10;;;;;;;;;;5095366;23;19921;-95
2022/07/06 16:52:03;;;;;;;0.10;0.10;;;;;;;;;;6046218;23;21045;-95
2022/07/06 16:54:32;;;;;;;0.10;0.10;;;;;;;;;;5182295;22;20049;-95
2022/07/06 16:59:51;;;;;;;0.20;0.20;;;;;;;;;;6128433;22;20021;-96
2022/07/06 17:07:37;;;;;;;0.10;0.10;;;;;;;;;;5278764;23;20052;-94
2022/07/06 17:34:23;;;;;;;0.10;0.10;;;;;;;;;;5019632;23;20133;-94
2022/07/06 17:36:49;;;;;;;0.10;0.10;;;;;;;;;;4984616;28;20049;-94
2022/07/06 17:39:18;;;;;;;0.10;0.10;;;;;;;;;;4998619;28;20124;-95
2022/07/06 17:44:20;;;;;;;0.10;0.10;;;;;;;;;;5058006;23;20074;-93
2022/07/06 17:46:46;;;;;;;0.10;0.10;;;;;;;;;;4988391;28;20053;-93
2022/07/06 17:49:15;;;;;;;0.10;0.10;;;;;;;;;;5002684;28;20041;-96
2022/07/06 17:52:14;;;;;;;0.10;0.10;;;;;;;;;;5001021;28;20054;-96
2022/07/06 17:54:46;;;;;;;0.10;0.10;;;;;;;;;;5000024;28;20042;-94
2022/07/06 17:57:12;;;;;;;0.10;0.10;;;;;;;;;;4982270;28;20042;-94
2022/07/06 18:09:06;;;;;;;0.10;0.10;;;;;;;;;;5021676;28;20087;-94
2022/07/06 18:11:33;;;;;;;0.10;0.10;;;;;;;;;;4981808;28;20141;-96
2022/07/06 19:01:22;;;;;;;0.10;0.10;;;;;;;;;;5016538;28;20046;-96
2022/07/06 19:04:07;;;;;;;0.10;0.10;;;;;;;;;;4980534;28;20093;-96
2022/07/06 19:06:33;;;;;;;0.10;0.10;;;;;;;;;;4979761;28;20049;-96
2022/07/06 19:09:04;;;;;;;0.10;0.10;;;;;;;;;;4981155;28;20089;-96
2022/07/06 19:11:55;;;;;;;0.10;0.10;;;;;;;;;;4988164;28;20038;-96
2022/07/06 19:14:22;;;;;;;0.10;0.10;;;;;;;;;;4997421;28;20481;-96
2022/07/06 19:16:51;;;;;;;0.10;0.10;;;;;;;;;;4982126;28;20363;-96
2022/07/06 19:19:17;;;;;;;0.10;0.10;;;;;;;;;;4982642;28;20073;-96
2022/07/06 19:21:49;;;;;;;0.10;0.10;;;;;;;;;;4981479;28;20461;-95
2022/07/06 19:24:20;;;;;;;0.10;0.10;;;;;;;;;;4983226;28;20080;-96
2022/07/06 19:34:04;;;;;;;;;;;;;;;;;;;;;
2022/07/06 19:36:41;;;;;;;0.10;0.10;;;;;;;;;;5005428;28;20045;-96
2022/07/06 20:18:16;;;;;;;0.10;0.10;;;;;;;;;;6220451;22;2123258;-96
2022/07/06 20:20:42;;;;;;;0.10;0.10;;;;;;;;;;6263452;22;20098;-96
2022/07/06 20:23:57;;;;;;;;;;;;;;;;;;;;;
2022/07/06 20:26:26;;;;;;;0.10;0.10;;;;;;;;;;6251627;23;20012;-94
2022/07/06 20:28:53;;;;;;;0.17;0.17;;;;;;;;;;6257190;22;20353;-93
2022/07/06 20:34:26;;;;;;;0.10;0.10;;;;;;;;;;6277557;22;20015;-96
2022/07/06 20:37:25;;;;;;;;;;;;;;;;;;;;;
2022/07/06 21:45:54;;;;;;;0.10;0.10;;;;;;;;;;6116686;23;20014;-96
2022/07/06 21:48:53;;;;;;;0.10;0.10;;;;;;;;;;6186935;23;20016;-96
2022/07/06 21:51:22;;;;;;;0.10;0.10;;;;;;;;;;6163413;23;20049;-95
2022/07/06 21:53:48;;;;;;;0.10;0.10;;;;;;;;;;6168584;23;20019;-95
2022/07/06 21:56:50;;;;;;;;;;;;;;;;;;;;;
2022/07/06 21:59:26;;;;;;;0.10;0.10;;;;;;;;;;6217512;23;20098;-95
2022/07/06 22:05:35;;;;;;;;;;;;;;;;;;;;;
2022/07/06 22:08:25;;;;;;;0.10;0.10;;;;;;;;;;6214895;23;20016;-96
2022/07/06 22:10:56;;;;;;;0.10;0.10;;;;;;;;;;6193697;23;20032;-96
2022/07/06 22:17:13;;;;;;;0.10;0.10;;;;;;;;;;6187335;23;20051;-96
2022/07/06 22:30:26;;;;;;;0.10;0.10;;;;;;;;;;6248761;22;20368;-95
2022/07/06 22:32:34;;;;;;;0.10;0.10;;;;;;;;;;6244313;22;20475;-96
2022/07/06 22:35:18;;;;;;;0.10;0.10;;;;;;;;;;6252723;22;20049;-94
2022/07/06 22:37:50;;;;;;;0.10;0.10;;;;;;;;;;6243662;22;20018;-96
2022/07/06 22:43:26;;;;;;;0.10;0.10;;;;;;;;;;6306839;22;20136;-96
2022/07/06 22:45:52;;;;;;;0.20;0.20;;;;;;;;;;6254907;22;20018;-96
2022/07/06 22:48:18;;;;;;;0.10;0.10;;;;;;;;;;6254789;22;20877;-95
2022/07/06 22:50:45;;;;;;;0.10;0.10;;;;;;;;;;6254527;22;20011;-95
2022/07/06 22:53:11;;;;;;;0.10;0.10;;;;;;;;;;6254519;22;20011;-95
2022/07/06 22:55:37;;;;;;;0.10;0.10;;;;;;;;;;6254938;22;20011;-95
2022/07/06 22:58:03;;;;;;;0.20;0.20;;;;;;;;;;6254973;22;20459;-96
2022/07/06 23:00:32;;;;;;;0.10;0.10;;;;;;;;;;6254617;22;20054;-96
2022/07/06 23:02:58;;;;;;;0.10;0.10;;;;;;;;;;6254469;22;20011;-95
2022/07/06 23:05:24;;;;;;;0.10;0.10;;;;;;;;;;6254627;22;20019;-93
2022/07/06 23:07:50;;;;;;;0.10;0.10;;;;;;;;;;6254554;22;20436;-94
2022/07/06 23:10:16;;;;;;;0.10;0.10;;;;;;;;;;6254537;22;20007;-95
2022/07/06 23:12:44;;;;;;;0.20;0.20;;;;;;;;;;6254892;22;20011;-96
2022/07/06 23:15:23;;;;;;;0.10;0.10;;;;;;;;;;6254838;22;20018;-95
2022/07/06 23:17:49;;;;;;;0.10;0.10;;;;;;;;;;6255344;22;20106;-95
2022/07/06 23:20:15;;;;;;;0.10;0.10;;;;;;;;;;6254588;22;20077;-94
2022/07/06 23:22:41;;;;;;;0.10;0.10;;;;;;;;;;6254400;22;20015;-96
2022/07/06 23:25:07;;;;;;;0.10;0.10;;;;;;;;;;6254642;22;20011;-96
2022/07/06 23:27:48;;;;;;;0.32;0.32;;;;;;;;;;6254822;22;20015;-96
2022/07/06 23:30:16;;;;;;;0.10;0.10;;;;;;;;;;6255946;22;20015;-95
2022/07/06 23:39:42;;;;;;;;;;;;;;;;;;;;;
2022/07/06 23:54:55;;;;;;;0.20;0.20;;;;;;;;;;6360297;22;20022;-96
